createdAt,value
2019-06-08T00:02:14.719Z,100769.93
2019-06-08T00:04:41.749Z,100774.36
2019-06-08T00:07:08.703Z,100772.59
2019-06-08T00:09:35.660Z,100779.22
2019-06-08T00:12:02.637Z,100772.59
2019-06-08T00:14:29.610Z,100772.61
2019-06-08T00:16:59.362Z,100769.96
2019-06-08T00:19:26.315Z,100780.62
2019-06-08T00:21:53.280Z,100784.16
2019-06-08T00:24:20.309Z,100783.22
2019-06-08T00:26:47.254Z,100786.31
2019-06-08T00:29:14.503Z,100781.50
2019-06-08T00:31:41.457Z,100792.55
2019-06-08T00:34:08.392Z,100793.92
2019-06-08T00:36:35.356Z,100792.16
2019-06-08T00:39:03.991Z,100790.83
2019-06-08T00:41:30.934Z,100787.30
2019-06-08T00:43:58.520Z,100794.37
2019-06-08T00:46:25.752Z,100802.33
2019-06-08T00:48:52.856Z,100798.34
2019-06-08T00:51:20.986Z,100800.13
2019-06-08T00:53:48.133Z,100817.80
2019-06-08T00:56:15.076Z,100806.77
2019-06-08T00:58:42.079Z,100806.33
2019-06-08T01:01:09.146Z,100799.69
2019-06-08T01:03:36.083Z,100808.97
2019-06-08T01:06:03.034Z,100816.50
2019-06-08T01:08:30.006Z,100824.02
2019-06-08T01:10:56.948Z,100819.59
2019-06-08T01:13:24.912Z,100818.73
2019-06-08T01:15:51.956Z,100831.55
2019-06-08T01:18:20.697Z,100833.30
2019-06-08T01:20:47.761Z,100834.20
2019-06-08T01:23:14.754Z,100836.84
2019-06-08T01:25:41.845Z,100838.16
2019-06-08T01:28:08.775Z,100840.36
2019-06-08T01:30:35.721Z,100838.14
2019-06-08T01:33:02.690Z,100840.80
2019-06-08T01:35:30.857Z,100847.42
2019-06-08T01:37:57.995Z,100845.20
2019-06-08T01:40:27.352Z,100852.73
2019-06-08T01:42:54.468Z,100851.41
2019-06-08T01:45:32.420Z,100855.38
2019-06-08T01:48:20.352Z,100871.29
2019-06-08T01:50:46.770Z,100862.02
2019-06-08T01:53:13.755Z,100870.84
2019-06-08T01:55:40.723Z,100874.37
2019-06-08T01:58:07.688Z,100884.90
2019-06-08T02:01:11.529Z,100883.11
2019-06-08T02:03:38.513Z,100886.66
2019-06-08T02:06:05.451Z,100890.16
2019-06-08T02:08:32.638Z,100897.66
2019-06-08T02:10:59.722Z,100893.67
2019-06-08T02:13:26.894Z,100898.11
2019-06-08T02:15:53.953Z,100906.50
2019-06-08T02:18:35.569Z,100914.01
2019-06-08T02:20:49.788Z,100925.05
2019-06-08T02:23:16.727Z,100916.22
2019-06-08T02:25:43.722Z,100906.92
2019-06-08T02:28:11.812Z,100908.70
2019-06-08T02:30:41.704Z,100915.30
2019-06-08T02:33:07.620Z,100915.73
2019-06-08T02:35:35.457Z,100901.59
2019-06-08T02:38:03.546Z,100919.24
2019-06-08T02:40:32.422Z,100917.95
2019-06-08T02:42:59.342Z,100925.89
2019-06-08T02:45:26.307Z,100927.20
2019-06-08T02:47:53.280Z,100938.64
2019-06-08T02:50:49.515Z,100942.16
2019-06-08T02:53:17.652Z,100940.41
2019-06-08T02:55:46.940Z,100940.39
2019-06-08T02:58:14.987Z,100932.89
2019-06-08T03:00:44.501Z,100946.99
2019-06-08T03:03:12.643Z,100948.80
2019-06-08T03:05:40.940Z,100950.05
2019-06-08T03:08:09.705Z,100951.84
2019-06-08T03:10:42.806Z,100945.23
2019-06-08T03:13:10.323Z,100952.73
2019-06-08T03:15:39.139Z,100957.12
2019-06-08T03:18:06.330Z,100958.87
2019-06-08T03:20:33.514Z,100965.05
2019-06-08T03:23:00.598Z,100971.24
2019-06-08T03:25:27.580Z,100967.73
2019-06-08T03:27:54.506Z,100963.70
2019-06-08T03:30:21.672Z,100973.89
2019-06-08T03:32:55.895Z,100982.70
2019-06-08T03:35:17.490Z,100973.88
2019-06-08T03:37:44.755Z,100976.55
2019-06-08T03:40:11.962Z,100979.63
2019-06-08T03:42:38.863Z,100986.67
2019-06-08T03:45:06.820Z,100984.91
2019-06-08T03:47:34.534Z,100994.17
2019-06-08T03:50:01.609Z,100985.37
2019-06-08T03:52:28.580Z,100986.65
2019-06-08T03:54:55.532Z,100998.12
2019-06-08T03:57:22.457Z,100984.41
2019-06-08T03:59:49.463Z,101007.38
2019-06-08T04:02:16.403Z,101011.34
2019-06-08T04:04:43.830Z,101005.61
2019-06-08T04:07:10.906Z,101006.09
2019-06-08T04:09:39.713Z,101005.59
2019-06-08T04:12:06.697Z,101006.48
2019-06-08T04:14:33.679Z,101007.02
2019-06-08T04:17:00.657Z,101015.75
2019-06-08T04:19:27.599Z,101029.84
2019-06-08T04:21:54.588Z,101026.32
2019-06-08T04:24:22.432Z,101021.91
2019-06-08T04:26:50.786Z,101033.84
2019-06-08T04:29:25.275Z,101043.11
2019-06-08T04:31:52.251Z,101030.75
2019-06-08T04:34:20.896Z,101044.86
2019-06-08T04:36:50.194Z,101039.55
2019-06-08T04:39:16.734Z,101039.97
2019-06-08T04:41:44.996Z,101037.68
2019-06-08T04:44:12.549Z,101044.30
2019-06-08T04:46:40.789Z,101045.16
2019-06-08T04:49:08.397Z,101052.67
2019-06-08T04:54:51.215Z,101060.17
2019-06-08T04:57:20.180Z,101066.41
2019-06-08T04:59:48.352Z,101081.30
2019-06-08T05:02:16.047Z,101072.51
2019-06-08T05:04:43.313Z,101076.02
2019-06-08T05:07:10.810Z,101080.48
2019-06-08T05:09:39.061Z,101080.39
2019-06-08T05:12:06.263Z,101087.50
2019-06-08T05:14:33.199Z,101083.93
2019-06-08T05:17:00.167Z,101089.21
2019-06-08T05:19:27.101Z,101100.71
2019-06-08T05:21:54.057Z,101081.23
2019-06-08T05:24:21.011Z,101113.45
2019-06-08T05:26:48.018Z,101105.59
2019-06-08T05:29:15.385Z,101098.03
2019-06-08T05:31:43.523Z,101105.97
2019-06-08T05:34:10.812Z,101092.78
2019-06-08T05:36:37.732Z,101114.84
2019-06-08T05:39:06.198Z,101113.53
2019-06-08T05:41:33.176Z,101108.13
2019-06-08T05:44:00.267Z,101113.40
2019-06-08T05:46:27.205Z,101116.53
2019-06-08T05:48:54.188Z,101117.91
2019-06-08T05:51:21.160Z,101118.22
2019-06-08T05:53:48.145Z,101115.58
2019-06-08T05:56:16.213Z,101127.88
2019-06-08T05:58:44.613Z,101138.95
2019-06-08T06:01:11.598Z,101145.95
2019-06-08T06:03:38.531Z,101147.03
2019-06-08T06:06:07.908Z,101154.83
2019-06-08T06:08:34.893Z,101159.44
2019-06-08T06:11:01.828Z,101164.12
2019-06-08T06:13:28.760Z,101170.48
2019-06-08T06:15:55.742Z,101169.44
2019-06-08T06:18:22.682Z,101169.41
2019-06-08T06:20:49.626Z,101170.59
2019-06-08T06:23:16.607Z,101176.69
2019-06-08T06:25:43.567Z,101175.93
2019-06-08T06:28:10.532Z,101190.95
2019-06-08T06:30:37.478Z,101187.44
2019-06-08T06:33:04.439Z,101192.70
2019-06-08T06:35:31.383Z,101195.41
2019-06-08T06:37:58.386Z,101200.34
2019-06-08T06:40:25.349Z,101204.30
2019-06-08T06:42:52.434Z,101214.47
2019-06-08T06:45:19.512Z,101214.06
2019-06-08T06:47:46.584Z,101211.91
2019-06-08T06:50:13.655Z,101220.80
2019-06-08T06:52:42.762Z,101223.07
2019-06-08T06:55:09.955Z,101221.75
2019-06-08T06:57:37.062Z,101226.19
2019-06-08T07:00:06.008Z,101229.34
2019-06-08T07:02:32.991Z,101232.52
2019-06-08T07:04:59.923Z,101237.36
2019-06-08T07:07:27.355Z,101235.62
2019-06-08T07:09:54.958Z,101248.42
2019-06-08T07:12:22.056Z,101252.83
2019-06-08T07:14:49.179Z,101249.75
2019-06-08T07:17:16.131Z,101245.80
2019-06-08T07:19:43.089Z,101251.95
2019-06-08T07:22:10.106Z,101267.02
2019-06-08T07:24:37.087Z,101264.42
2019-06-08T07:27:07.442Z,101266.63
2019-06-08T07:29:33.741Z,101265.38
2019-06-08T07:32:00.733Z,101272.98
2019-06-08T07:34:27.676Z,101273.56
2019-06-08T07:36:55.542Z,101275.02
2019-06-08T07:39:22.750Z,101281.28
2019-06-08T07:41:50.233Z,101292.94
2019-06-08T07:44:17.294Z,101297.89
2019-06-08T07:46:44.244Z,101294.52
2019-06-08T07:49:13.233Z,101307.03
2019-06-08T07:51:40.202Z,101297.52
2019-06-08T07:54:07.171Z,101287.93
2019-06-08T07:56:34.120Z,101311.56
2019-06-08T07:59:01.138Z,101288.38
2019-06-08T08:01:36.047Z,101304.58
2019-06-08T08:03:58.349Z,101308.56
2019-06-08T08:06:25.445Z,101306.78
2019-06-08T08:08:54.791Z,101302.77
2019-06-08T08:11:21.962Z,101315.19
2019-06-08T08:13:50.123Z,101308.98
2019-06-08T08:16:17.890Z,101320.53
2019-06-08T08:18:44.846Z,101317.61
2019-06-08T08:21:21.775Z,101325.57
2019-06-08T08:23:40.750Z,101326.91
2019-06-08T08:26:07.723Z,101323.51
2019-06-08T08:28:37.394Z,101321.50
2019-06-08T08:31:03.612Z,101321.21
2019-06-08T08:33:30.565Z,101312.88
2019-06-08T08:35:59.786Z,101320.56
2019-06-08T08:38:27.320Z,101325.24
2019-06-08T08:40:56.380Z,101322.36
2019-06-08T08:43:23.271Z,101321.13
2019-06-08T08:45:51.087Z,101329.63
2019-06-08T08:48:25.431Z,101336.36
2019-06-08T08:50:48.351Z,101348.77
2019-06-08T08:53:18.070Z,101334.11
2019-06-08T08:55:45.112Z,101333.55
2019-06-08T08:58:12.088Z,101363.15
2019-06-08T09:00:41.268Z,101358.27
2019-06-08T09:03:22.037Z,101363.06
2019-06-08T09:05:38.176Z,101371.88
2019-06-08T09:08:05.301Z,101368.63
2019-06-08T09:10:32.235Z,101382.34
2019-06-08T09:13:02.951Z,101395.97
2019-06-08T09:15:31.539Z,101389.71
2019-06-08T09:18:01.019Z,101397.75
2019-06-08T09:20:28.544Z,101394.20
2019-06-08T09:23:03.914Z,101399.36
2019-06-08T09:25:24.928Z,101401.21
2019-06-08T09:27:53.339Z,101411.31
2019-06-08T09:30:20.967Z,101416.20
2019-06-08T09:32:48.024Z,101421.50
2019-06-08T09:35:20.884Z,101422.41
2019-06-08T09:37:48.387Z,101424.27
2019-06-08T09:40:15.452Z,101433.98
2019-06-08T09:42:42.414Z,101440.19
2019-06-08T09:45:09.612Z,101441.06
2019-06-08T09:47:38.107Z,101452.98
2019-06-08T09:50:08.935Z,101447.70
2019-06-08T09:52:34.656Z,101459.56
2019-06-08T09:55:03.960Z,101468.41
2019-06-08T09:57:31.776Z,101464.47
2019-06-08T10:00:05.175Z,101472.32
2019-06-08T10:02:28.749Z,101474.06
2019-06-08T10:04:56.694Z,101481.13
2019-06-08T10:07:24.915Z,101479.80
2019-06-08T10:09:54.289Z,101480.20
2019-06-08T10:12:21.242Z,101487.27
2019-06-08T10:14:49.006Z,101488.57
2019-06-08T10:17:21.016Z,101489.52
2019-06-08T10:19:57.896Z,101499.40
2019-06-08T10:22:29.595Z,101493.39
2019-06-08T10:25:02.818Z,101497.45
2019-06-08T10:27:30.557Z,101498.27
2019-06-08T10:30:03.160Z,101503.02
2019-06-08T10:32:32.182Z,101506.03
2019-06-08T10:35:02.285Z,101510.00
2019-06-08T10:37:31.464Z,101508.67
2019-06-08T10:40:02.557Z,101508.37
2019-06-08T10:42:32.909Z,101515.53
2019-06-08T10:45:09.459Z,101515.14
2019-06-08T10:47:40.195Z,101512.13
2019-06-08T10:50:15.304Z,101520.00
2019-06-08T10:52:42.739Z,101521.73
2019-06-08T10:55:17.867Z,101521.25
2019-06-08T10:57:52.507Z,101529.20
2019-06-08T11:00:24.772Z,101533.16
2019-06-08T11:02:54.753Z,101537.13
2019-06-08T11:05:21.975Z,101543.28
2019-06-08T11:07:49.072Z,101542.39
2019-06-08T11:10:19.050Z,101550.73
2019-06-08T11:12:48.375Z,101555.05
2019-06-08T11:15:15.018Z,101569.08
2019-06-08T11:17:41.949Z,101571.63
2019-06-08T11:20:13.063Z,101565.02
2019-06-08T11:22:38.410Z,101573.62
2019-06-08T11:25:15.174Z,101574.13
2019-06-08T11:27:35.305Z,101564.56
2019-06-08T11:30:11.485Z,101575.75
2019-06-08T11:32:32.663Z,101571.89
2019-06-08T11:34:59.928Z,101568.17
2019-06-08T11:37:27.041Z,101573.77
2019-06-08T11:39:54.100Z,101581.95
2019-06-08T11:42:21.183Z,101582.05
2019-06-08T11:44:51.075Z,101583.38
2019-06-08T11:47:18.181Z,101590.94
2019-06-08T11:49:48.016Z,101595.35
2019-06-08T11:52:14.260Z,101603.82
2019-06-08T11:54:41.496Z,101591.48
2019-06-08T11:57:11.704Z,101596.82
2019-06-08T11:59:39.478Z,101596.97
2019-06-08T12:02:10.533Z,101601.92
2019-06-08T12:04:35.447Z,101602.90
2019-06-08T12:07:02.420Z,101608.29
2019-06-08T12:09:29.422Z,101609.56
2019-06-08T12:11:58.114Z,101624.11
2019-06-08T12:14:26.421Z,101621.36
2019-06-08T12:16:53.428Z,101620.55
2019-06-08T12:19:21.030Z,101617.94
2019-06-08T12:21:49.873Z,101609.56
2019-06-08T12:24:17.020Z,101618.02
2019-06-08T12:26:43.979Z,101628.28
2019-06-08T12:29:13.048Z,101620.80
2019-06-08T12:31:39.844Z,101616.39
2019-06-08T12:34:07.212Z,101619.86
2019-06-08T12:36:34.204Z,101625.19
2019-06-08T12:39:01.296Z,101618.52
2019-06-08T12:41:31.176Z,101627.77
2019-06-08T12:43:58.047Z,101631.00
2019-06-08T12:46:25.138Z,101613.45
2019-06-08T12:48:52.128Z,101625.95
2019-06-08T12:51:21.296Z,101614.42
2019-06-08T12:53:48.001Z,101630.47
2019-06-08T12:56:18.678Z,101624.25
2019-06-08T12:58:48.199Z,101621.13
2019-06-08T13:01:15.148Z,101614.84
2019-06-08T13:03:43.913Z,101616.44
2019-06-08T13:06:12.498Z,101603.10
2019-06-08T13:08:40.026Z,101614.98
2019-06-08T13:11:09.026Z,101613.01
2019-06-08T13:13:37.842Z,101600.32
2019-06-08T13:16:04.840Z,101609.64
2019-06-08T13:18:31.806Z,101599.23
2019-06-08T13:21:00.447Z,101608.69
2019-06-08T13:23:28.318Z,101613.77
2019-06-08T13:25:55.516Z,101622.52
2019-06-08T13:28:25.417Z,101609.75
2019-06-08T13:30:51.387Z,101636.09
2019-06-08T13:33:18.371Z,101613.73
2019-06-08T13:35:47.832Z,101614.62
2019-06-08T13:38:14.732Z,101615.53
2019-06-08T13:40:41.795Z,101610.68
2019-06-08T13:43:08.908Z,101606.40
2019-06-08T13:45:35.882Z,101615.55
2019-06-08T13:48:03.088Z,101612.11
2019-06-08T13:50:30.255Z,101611.19
2019-06-08T13:52:58.747Z,101616.48
2019-06-08T13:55:47.658Z,101609.97
2019-06-08T13:57:58.108Z,101614.84
2019-06-08T14:00:32.506Z,101618.52
2019-06-08T14:03:00.842Z,101616.66
2019-06-08T14:06:04.586Z,101635.30
2019-06-08T14:08:33.010Z,101639.02
2019-06-08T14:11:01.411Z,101639.59
2019-06-08T14:13:34.127Z,101660.20
2019-06-08T14:15:58.605Z,101679.88
2019-06-08T14:18:30.001Z,101712.30
2019-06-08T14:20:55.050Z,101706.38
2019-06-08T14:23:23.138Z,101704.63
2019-06-08T14:25:56.648Z,101729.20
2019-06-08T14:28:22.474Z,101697.55
2019-06-08T14:30:48.921Z,101690.38
2019-06-08T14:33:23.012Z,101686.78
2019-06-08T14:35:44.771Z,101677.58
2019-06-08T14:38:11.902Z,101679.88
2019-06-08T14:40:38.883Z,101676.63
2019-06-08T14:43:10.492Z,101689.44
2019-06-08T14:45:34.842Z,101690.67
2019-06-08T14:48:01.800Z,101706.70
2019-06-08T14:50:30.691Z,101694.44
2019-06-08T14:52:58.909Z,101707.39
2019-06-08T14:55:29.732Z,101707.42
2019-06-08T14:57:55.284Z,101712.38
2019-06-08T15:00:23.046Z,101725.28
2019-06-08T15:02:51.092Z,101763.86
2019-06-08T15:05:19.598Z,101793.41
2019-06-08T15:07:47.794Z,101774.86
2019-06-08T15:10:15.064Z,101770.55
2019-06-08T15:12:42.012Z,101769.53
2019-06-08T15:15:11.166Z,101785.40
2019-06-08T15:17:38.109Z,101798.09
2019-06-08T15:20:05.301Z,101804.98
2019-06-08T15:22:32.370Z,101796.73
2019-06-08T15:24:59.305Z,101806.02
2019-06-08T15:27:30.019Z,101795.70
2019-06-08T15:29:55.137Z,101798.79
2019-06-08T15:32:22.957Z,101805.88
2019-06-08T15:34:50.968Z,101810.98
2019-06-08T15:37:18.601Z,101820.12
2019-06-08T15:39:51.116Z,101825.70
2019-06-08T15:42:14.588Z,101820.73
2019-06-08T15:44:41.713Z,101830.80
2019-06-08T15:47:08.697Z,101843.50
2019-06-08T15:49:36.030Z,101867.87
2019-06-08T15:52:02.999Z,101864.77
2019-06-08T15:54:35.738Z,101845.62
2019-06-08T15:56:59.831Z,101845.78
2019-06-08T15:59:31.176Z,101830.88
2019-06-08T16:01:55.675Z,101828.42
2019-06-08T16:04:23.425Z,101825.77
2019-06-08T16:06:50.409Z,101822.83
2019-06-08T16:09:17.416Z,101817.53
2019-06-08T16:11:44.413Z,101824.80
2019-06-08T16:14:11.440Z,101812.48
2019-06-08T16:16:40.601Z,101820.16
2019-06-08T16:19:09.191Z,101821.02
2019-06-08T16:21:36.153Z,101822.05
2019-06-08T16:24:03.176Z,101812.67
2019-06-08T16:26:30.305Z,101813.30
2019-06-08T16:28:57.241Z,101813.83
2019-06-08T16:31:24.229Z,101810.85
2019-06-08T16:33:51.222Z,101808.33
2019-06-08T16:36:18.218Z,101814.64
2019-06-08T16:38:45.412Z,101818.94
2019-06-08T16:41:12.412Z,101821.70
2019-06-08T16:43:39.763Z,101827.43
2019-06-08T16:46:06.720Z,101824.61
2019-06-08T16:48:34.360Z,101828.14
2019-06-08T16:51:01.665Z,101834.03
2019-06-08T16:53:29.412Z,101838.89
2019-06-08T16:55:56.556Z,101837.44
2019-06-08T16:58:23.519Z,101838.47
2019-06-08T17:00:50.614Z,101835.36
2019-06-08T17:03:17.581Z,101837.67
2019-06-08T17:05:44.568Z,101834.91
2019-06-08T17:08:11.659Z,101830.94
2019-06-08T17:10:39.031Z,101829.52
2019-06-08T17:13:06.021Z,101829.28
2019-06-08T17:15:34.116Z,101832.44
2019-06-08T17:18:01.197Z,101829.31
2019-06-08T17:20:28.137Z,101827.44
2019-06-08T17:22:55.168Z,101832.30
2019-06-08T17:25:22.221Z,101828.05
2019-06-08T17:27:49.195Z,101825.55
2019-06-08T17:30:17.081Z,101822.94
2019-06-08T17:32:44.034Z,101828.25
2019-06-08T17:35:12.098Z,101837.55
2019-06-08T17:37:40.120Z,101833.67
2019-06-08T17:40:07.469Z,101824.66
2019-06-08T17:42:34.818Z,101830.27
2019-06-08T17:45:02.033Z,101839.14
2019-06-08T17:47:28.991Z,101844.98
2019-06-08T17:49:57.135Z,101837.34
2019-06-08T17:52:25.985Z,101836.94
2019-06-08T17:54:53.033Z,101843.54
2019-06-08T17:57:19.985Z,101846.16
2019-06-08T17:59:46.938Z,101847.97
2019-06-08T18:02:21.265Z,101846.17
2019-06-08T18:04:44.335Z,101850.50
2019-06-08T18:07:11.449Z,101854.96
2019-06-08T18:13:10.184Z,101864.98
2019-06-08T18:16:01.644Z,101871.22
2019-06-08T18:18:28.624Z,101867.86
2019-06-08T18:21:47.215Z,101871.51
2019-06-08T18:24:13.579Z,101870.41
2019-06-08T18:26:41.803Z,101869.81
2019-06-08T18:29:09.239Z,101874.37
2019-06-08T18:31:39.562Z,101870.80
2019-06-08T18:34:05.095Z,101868.13
2019-06-08T18:36:32.348Z,101873.34
2019-06-08T18:38:59.327Z,101871.78
2019-06-08T18:41:27.138Z,101867.29
2019-06-08T18:43:54.424Z,101864.45
2019-06-08T18:46:21.423Z,101874.53
2019-06-08T18:48:49.301Z,101867.36
2019-06-08T18:51:17.489Z,101875.59
2019-06-08T18:54:01.878Z,101879.44
2019-06-08T18:56:13.476Z,101886.41
2019-06-08T18:58:40.455Z,101881.73
2019-06-08T19:01:08.750Z,101885.60
2019-06-08T19:03:40.278Z,101888.56
2019-06-08T19:06:10.155Z,101895.94
2019-06-08T19:08:42.356Z,101903.27
2019-06-08T19:11:08.529Z,101904.37
2019-06-08T19:13:37.855Z,101903.38
2019-06-08T19:16:07.440Z,101905.14
2019-06-08T19:18:34.003Z,101920.68
2019-06-08T19:21:01.066Z,101921.52
2019-06-08T19:23:28.141Z,101923.66
2019-06-08T19:25:55.137Z,101926.55
2019-06-08T19:28:35.322Z,101935.30
2019-06-08T19:30:51.673Z,101934.83
2019-06-08T19:33:18.829Z,101932.61
2019-06-08T19:35:48.979Z,101940.53
2019-06-08T19:38:14.649Z,101945.44
2019-06-08T19:40:42.615Z,101952.45
2019-06-08T19:43:09.821Z,101957.30
2019-06-08T19:45:39.146Z,101968.61
2019-06-08T19:48:08.098Z,101968.86
2019-06-08T19:50:34.615Z,101974.88
2019-06-08T19:53:01.597Z,101974.73
2019-06-08T19:55:28.674Z,101978.55
2019-06-08T19:58:18.020Z,101985.56
2019-06-08T20:00:52.360Z,101983.77
2019-06-08T20:03:14.794Z,101989.00
2019-06-08T20:05:42.908Z,101986.78
2019-06-08T20:08:10.147Z,101992.97
2019-06-08T20:10:37.122Z,101995.07
2019-06-08T20:13:04.052Z,101997.69
2019-06-08T20:15:31.023Z,102001.50
2019-06-08T20:17:57.998Z,102009.33
2019-06-08T20:20:27.704Z,102015.78
2019-06-08T20:22:54.206Z,102013.80
2019-06-08T20:25:21.452Z,102021.84
2019-06-08T20:27:51.716Z,102032.73
2019-06-08T20:30:18.980Z,102034.36
2019-06-08T20:32:50.746Z,102041.14
2019-06-08T20:35:17.425Z,102041.34
2019-06-08T20:37:45.677Z,102039.38
2019-06-08T20:40:14.320Z,102043.21
2019-06-08T20:42:42.235Z,102047.98
2019-06-08T20:45:09.617Z,102041.58
2019-06-08T20:47:38.910Z,102045.73
2019-06-08T20:50:07.482Z,102043.85
2019-06-08T20:52:34.651Z,102055.23
2019-06-08T20:55:01.766Z,102049.00
2019-06-08T20:57:28.709Z,102054.15
2019-06-08T20:59:57.892Z,102054.53
2019-06-08T21:02:24.709Z,102062.79
2019-06-08T21:04:54.451Z,102062.27
2019-06-08T21:07:20.941Z,102067.89
2019-06-08T21:09:50.639Z,102068.73
2019-06-08T21:12:17.779Z,102075.72
2019-06-08T21:14:45.254Z,102075.25
2019-06-08T21:17:13.481Z,102079.92
2019-06-08T21:19:40.461Z,102076.28
2019-06-08T21:22:08.217Z,102082.41
2019-06-08T21:24:37.137Z,102082.27
2019-06-08T21:27:04.260Z,102083.44
2019-06-08T21:29:47.067Z,102080.08
2019-06-08T21:32:02.290Z,102082.05
2019-06-08T21:34:29.158Z,102082.66
2019-06-08T21:37:00.301Z,102083.30
2019-06-08T21:39:24.994Z,102078.70
2019-06-08T21:41:54.846Z,102083.72
2019-06-08T21:44:21.409Z,102085.04
2019-06-08T21:47:01.604Z,102088.36
2019-06-08T21:49:28.822Z,102085.14
2019-06-08T21:51:59.282Z,102083.97
2019-06-08T21:54:27.181Z,102085.07
2019-06-08T21:56:54.736Z,102085.38
2019-06-08T21:59:21.783Z,102079.62
2019-06-08T22:02:31.675Z,102087.13
2019-06-08T22:08:39.622Z,102082.73
2019-06-08T22:11:12.856Z,102088.39
2019-06-08T22:17:11.501Z,102096.98
2019-06-08T22:19:38.441Z,102099.56
2019-06-08T22:22:05.417Z,102092.55
2019-06-08T22:24:33.097Z,102098.83
2019-06-08T22:27:38.143Z,102101.41
2019-06-08T22:30:13.454Z,102101.72
2019-06-08T22:32:34.687Z,102106.84
2019-06-08T22:35:02.331Z,102104.67
2019-06-08T22:37:30.551Z,102106.84
2019-06-08T22:39:58.244Z,102104.20
2019-06-08T22:42:26.394Z,102105.52
2019-06-08T22:44:54.277Z,102101.86
2019-06-08T22:47:23.151Z,102105.34
2019-06-08T22:49:51.006Z,102103.43
2019-06-08T22:52:18.621Z,102104.52
2019-06-08T22:54:47.594Z,102100.75
2019-06-08T22:57:14.536Z,102109.75
2019-06-08T23:00:01.857Z,102113.84
2019-06-08T23:02:28.634Z,102108.41
2019-06-08T23:04:56.224Z,102120.06
2019-06-08T23:07:29.175Z,102112.32
2019-06-08T23:09:55.159Z,102119.69
2019-06-08T23:13:08.319Z,102117.89
2019-06-08T23:15:34.900Z,102125.33
2019-06-08T23:18:03.000Z,102120.23
2019-06-08T23:20:30.859Z,102118.84
2019-06-08T23:22:58.624Z,102118.42
2019-06-08T23:25:27.937Z,102118.90
2019-06-08T23:27:56.236Z,102123.27
2019-06-08T23:31:10.699Z,102115.78
2019-06-08T23:33:28.958Z,102116.80
2019-06-08T23:36:35.829Z,102116.86
2019-06-08T23:39:20.341Z,102121.72
2019-06-08T23:41:48.474Z,102122.71
2019-06-08T23:44:17.492Z,102120.02
2019-06-08T23:46:44.381Z,102124.98
2019-06-08T23:49:11.330Z,102124.51
2019-06-08T23:51:38.271Z,102127.75
2019-06-08T23:54:09.170Z,102131.28
2019-06-08T23:56:34.264Z,102134.58
2019-06-08T23:59:01.423Z,102134.42
